Station Historical Data
Daily Summary for January 9, 2018 Units:  English    Metric   Both
« Previous Day
Next Day »
Daily Weekly Monthly Yearly Custom
  High: Low: Average:
Temperature: 45.5 °F 28.6 °F 33.9 °F
Dew Point: 37.7 °F 27.3 °F 32 °F
Humidity: 97 % 63 % 93 %
Wind Speed: 9.0 mph 0.0 mph 0.4 mph
Wind Gust: 14.0 mph - -
Wind:- - WSW
Pressure: 30.30 in 30.12 in -
Precipitation: 0.01 in    
Historical Graphs
 
 
Tabular Data for January 9, 2018
Time Temperature Dew Point Pressure Wind Wind Speed Wind Gust Humidity Rainfall Rate (Hourly)
00:00 38.0 °F 36.7 °F 30.12 in SW 1.0 mph 7.0 mph 95 % 0.00 in
00:01 38.0 °F 36.7 °F 30.12 in Calm   5.0 mph 95 % 0.00 in
00:02 38.0 °F 36.7 °F 30.12 in Calm   5.0 mph 95 % 0.00 in
00:03 38.0 °F 36.7 °F 30.13 in Calm   5.0 mph 95 % 0.00 in
00:04 38.0 °F 36.7 °F 30.13 in SW 1.0 mph 5.0 mph 95 % 0.00 in
00:05 38.0 °F 36.7 °F 30.13 in Calm   5.0 mph 95 % 0.00 in
00:08 38.0 °F 36.7 °F 30.13 in SW 3.0 mph 5.0 mph 95 % 0.00 in
00:10 38.0 °F 36.7 °F 30.13 in Calm   5.0 mph 95 % 0.00 in
00:12 38.0 °F 36.7 °F 30.13 in Calm   5.0 mph 95 % 0.00 in
00:13 38.0 °F 36.7 °F 30.13 in Calm   5.0 mph 95 % 0.00 in
00:15 38.0 °F 36.7 °F 30.13 in Calm   5.0 mph 95 % 0.00 in
00:16 38.0 °F 36.7 °F 30.13 in SW 1.0 mph 5.0 mph 95 % 0.00 in
00:17 38.0 °F 36.7 °F 30.13 in Calm   5.0 mph 95 % 0.00 in
00:18 37.9 °F 36.6 °F 30.13 in Calm   5.0 mph 95 % 0.00 in
00:19 38.0 °F 36.7 °F 30.13 in Calm   5.0 mph 95 % 0.00 in
00:20 37.9 °F 36.6 °F 30.13 in Calm   5.0 mph 95 % 0.00 in
00:22 37.9 °F 36.6 °F 30.13 in Calm   5.0 mph 95 % 0.00 in
00:23 37.9 °F 36.6 °F 30.13 in Calm   5.0 mph 95 % 0.00 in
00:24 37.8 °F 36.5 °F 30.13 in Calm   5.0 mph 95 % 0.00 in
00:25 37.8 °F 36.5 °F 30.13 in Calm   5.0 mph 95 % 0.00 in
00:26 37.8 °F 36.5 °F 30.13 in Calm   5.0 mph 95 % 0.00 in
00:27 37.7 °F 36.4 °F 30.13 in Calm   5.0 mph 95 % 0.00 in
00:29 37.7 °F 36.4 °F 30.13 in Calm   5.0 mph 95 % 0.00 in
00:30 37.6 °F 36.3 °F 30.13 in Calm   5.0 mph 95 % 0.00 in
00:31 37.6 °F 36.3 °F 30.13 in Calm   3.0 mph 95 % 0.00 in
00:33 37.5 °F 36.2 °F 30.13 in Calm   3.0 mph 95 % 0.00 in
00:34 37.5 °F 36.2 °F 30.13 in Calm   3.0 mph 95 % 0.00 in
00:35 37.5 °F 36.2 °F 30.13 in Calm   3.0 mph 95 % 0.00 in
00:36 37.4 °F 36.1 °F 30.13 in Calm   2.0 mph 95 % 0.00 in
00:38 37.3 °F 35.7 °F 30.13 in Calm   1.0 mph 94 % 0.00 in
00:39 37.3 °F 36.0 °F 30.13 in Calm   1.0 mph 95 % 0.00 in
00:40 37.2 °F 35.9 °F 30.14 in Calm   1.0 mph 95 % 0.00 in
00:41 37.2 °F 35.9 °F 30.14 in Calm   1.0 mph 95 % 0.00 in
00:42 37.1 °F 35.8 °F 30.14 in Calm   1.0 mph 95 % 0.00 in
00:43 37.1 °F 35.5 °F 30.14 in Calm   1.0 mph 94 % 0.00 in
00:45 37.0 °F 35.4 °F 30.14 in Calm   1.0 mph 94 % 0.00 in
00:46 36.9 °F 35.3 °F 30.14 in Calm   1.0 mph 94 % 0.00 in
00:48 36.9 °F 35.3 °F 30.14 in Calm   1.0 mph 94 % 0.00 in
00:49 36.9 °F 35.3 °F 30.14 in Calm   1.0 mph 94 % 0.00 in
00:50 36.7 °F 35.1 °F 30.14 in Calm   1.0 mph 94 % 0.00 in
00:51 36.7 °F 35.1 °F 30.14 in Calm   1.0 mph 94 % 0.00 in
00:52 36.6 °F 35.0 °F 30.14 in Calm   1.0 mph 94 % 0.00 in
00:53 36.6 °F 35.0 °F 30.14 in Calm     94 % 0.00 in
00:55 36.5 °F 34.9 °F 30.14 in Calm     94 % 0.00 in
00:56 36.5 °F 34.9 °F 30.14 in Calm     94 % 0.00 in
00:57 36.3 °F 34.7 °F 30.14 in Calm     94 % 0.00 in
00:58 36.3 °F 34.7 °F 30.14 in Calm     94 % 0.00 in
00:59 36.3 °F 34.7 °F 30.14 in Calm     94 % 0.00 in
01:00 36.2 °F 34.6 °F 30.14 in Calm     94 % 0.00 in
01:03 36.1 °F 34.5 °F 30.14 in Calm   2.0 mph 94 % 0.00 in
01:04 36.1 °F 34.5 °F 30.14 in Calm   2.0 mph 94 % 0.00 in
01:07 36.0 °F 34.4 °F 30.14 in Calm   2.0 mph 94 % 0.00 in
01:11 35.9 °F 34.3 °F 30.14 in Calm   2.0 mph 94 % 0.00 in
01:13 35.9 °F 34.3 °F 30.14 in Calm   2.0 mph 94 % 0.00 in
01:14 35.8 °F 34.2 °F 30.14 in Calm   2.0 mph 94 % 0.00 in
01:17 35.7 °F 34.1 °F 30.14 in Calm   2.0 mph 94 % 0.00 in
01:19 35.6 °F 34.0 °F 30.15 in Calm   2.0 mph 94 % 0.00 in
01:20 35.6 °F 34.0 °F 30.15 in Calm   2.0 mph 94 % 0.00 in
01:21 35.5 °F 33.9 °F 30.15 in Calm   1.0 mph 94 % 0.00 in
01:23 35.5 °F 33.9 °F 30.15 in Calm   1.0 mph 94 % 0.00 in
01:26 35.4 °F 33.8 °F 30.15 in Calm   1.0 mph 94 % 0.00 in
01:27 35.3 °F 33.7 °F 30.15 in Calm   1.0 mph 94 % 0.00 in
01:28 35.3 °F 33.7 °F 30.15 in Calm   1.0 mph 94 % 0.00 in
01:29 35.2 °F 33.6 °F 30.15 in Calm   1.0 mph 94 % 0.00 in
01:30 35.2 °F 33.6 °F 30.15 in Calm   1.0 mph 94 % 0.00 in
01:31 35.2 °F 33.6 °F 30.15 in Calm   1.0 mph 94 % 0.00 in
01:32 35.1 °F 33.5 °F 30.15 in Calm     94 % 0.00 in
01:35 35.1 °F 33.5 °F 30.15 in Calm     94 % 0.00 in
01:36 35.0 °F 33.4 °F 30.15 in Calm     94 % 0.00 in
01:37 35.0 °F 33.4 °F 30.15 in Calm     94 % 0.00 in
01:38 35.0 °F 33.4 °F 30.15 in Calm     94 % 0.00 in
01:39 35.0 °F 33.4 °F 30.15 in Calm     94 % 0.00 in
01:40 35.0 °F 33.4 °F 30.15 in Calm     94 % 0.00 in
01:42 34.9 °F 33.6 °F 30.15 in Calm     95 % 0.00 in
01:44 34.9 °F 33.6 °F 30.15 in Calm     95 % 0.00 in
01:46 34.8 °F 33.5 °F 30.15 in Calm     95 % 0.00 in
01:47 34.8 °F 33.5 °F 30.15 in Calm     95 % 0.00 in
01:48 34.8 °F 33.5 °F 30.15 in Calm     95 % 0.00 in
01:50 34.7 °F 33.1 °F 30.15 in Calm     94 % 0.00 in
01:51 34.7 °F 33.1 °F 30.15 in Calm     94 % 0.00 in
01:53 34.6 °F 33.0 °F 30.15 in Calm     94 % 0.00 in
01:54 34.6 °F 33.0 °F 30.15 in Calm     94 % 0.00 in
01:56 34.6 °F 33.0 °F 30.15 in Calm     94 % 0.00 in
01:58 34.5 °F 32.9 °F 30.15 in Calm     94 % 0.00 in
01:59 34.5 °F 32.9 °F 30.16 in Calm     94 % 0.00 in
02:00 34.4 °F 32.8 °F 30.16 in Calm     94 % 0.00 in
02:02 34.3 °F 32.7 °F 30.16 in Calm     94 % 0.00 in
02:03 34.3 °F 32.7 °F 30.16 in Calm     94 % 0.00 in
02:04 34.3 °F 32.7 °F 30.16 in Calm     94 % 0.00 in
02:05 34.2 °F 32.6 °F 30.16 in Calm     94 % 0.00 in
02:06 34.2 °F 32.6 °F 30.16 in Calm     94 % 0.00 in
02:07 34.2 °F 32.6 °F 30.16 in Calm     94 % 0.00 in
02:08 34.1 °F 32.5 °F 30.16 in Calm     94 % 0.00 in
02:09 34.1 °F 32.5 °F 30.16 in Calm     94 % 0.00 in
02:10 34.1 °F 32.5 °F 30.16 in Calm     94 % 0.00 in
02:11 34.0 °F 32.4 °F 30.16 in Calm     94 % 0.00 in
02:12 34.0 °F 32.4 °F 30.16 in Calm     94 % 0.00 in
02:13 33.9 °F 32.3 °F 30.16 in Calm     94 % 0.00 in
02:14 33.9 °F 32.3 °F 30.16 in Calm     94 % 0.00 in
02:16 33.9 °F 32.3 °F 30.16 in Calm     94 % 0.00 in
02:17 33.9 °F 32.3 °F 30.16 in Calm     94 % 0.00 in
02:19 33.8 °F 32.2 °F 30.16 in Calm     94 % 0.00 in
02:20 33.8 °F 32.5 °F 30.16 in Calm     95 % 0.00 in
02:22 33.8 °F 32.5 °F 30.16 in Calm     95 % 0.00 in
02:23 33.7 °F 32.4 °F 30.16 in Calm   1.0 mph 95 % 0.00 in
02:24 33.7 °F 32.4 °F 30.17 in Calm   1.0 mph 95 % 0.00 in
02:25 33.7 °F 32.4 °F 30.17 in Calm   1.0 mph 95 % 0.00 in
02:26 33.7 °F 32.4 °F 30.17 in Calm   1.0 mph 95 % 0.00 in
02:27 33.7 °F 32.4 °F 30.17 in Calm   1.0 mph 95 % 0.00 in
02:28 33.6 °F 32.3 °F 30.17 in Calm   1.0 mph 95 % 0.00 in
02:29 33.6 °F 32.3 °F 30.17 in Calm   1.0 mph 95 % 0.00 in
02:30 33.5 °F 32.2 °F 30.17 in Calm   1.0 mph 95 % 0.00 in
02:31 33.5 °F 31.9 °F 30.17 in Calm   1.0 mph 94 % 0.00 in
02:32 33.5 °F 31.9 °F 30.17 in Calm   1.0 mph 94 % 0.00 in
02:33 33.5 °F 31.9 °F 30.17 in Calm   1.0 mph 94 % 0.00 in
02:34 33.5 °F 31.9 °F 30.17 in Calm   1.0 mph 94 % 0.00 in
02:35 33.4 °F 31.8 °F 30.17 in Calm   1.0 mph 94 % 0.00 in
02:36 33.4 °F 31.8 °F 30.17 in Calm   1.0 mph 94 % 0.00 in
02:38 33.3 °F 31.7 °F 30.17 in Calm   1.0 mph 94 % 0.00 in
02:39 33.3 °F 31.7 °F 30.17 in Calm   1.0 mph 94 % 0.00 in
02:43 33.2 °F 31.6 °F 30.17 in Calm     94 % 0.00 in
02:44 33.1 °F 31.5 °F 30.17 in Calm     94 % 0.00 in
02:45 33.1 °F 31.5 °F 30.17 in Calm     94 % 0.00 in
02:47 33.0 °F 31.4 °F 30.17 in Calm     94 % 0.00 in
02:48 33.0 °F 31.7 °F 30.17 in Calm     95 % 0.00 in
02:50 32.9 °F 31.6 °F 30.17 in Calm     95 % 0.00 in
02:51 32.9 °F 31.6 °F 30.17 in Calm     95 % 0.00 in
02:53 32.8 °F 31.2 °F 30.17 in Calm     94 % 0.00 in
02:54 32.8 °F 31.2 °F 30.17 in Calm     94 % 0.00 in
02:55 32.8 °F 31.2 °F 30.17 in Calm     94 % 0.00 in
02:56 32.8 °F 31.2 °F 30.17 in Calm     94 % 0.00 in
02:58 32.7 °F 31.4 °F 30.17 in Calm     95 % 0.00 in
03:00 32.7 °F 31.4 °F 30.17 in Calm     95 % 0.00 in
03:01 32.6 °F 31.3 °F 30.17 in Calm     95 % 0.00 in
03:02 32.6 °F 31.3 °F 30.17 in Calm     95 % 0.00 in
03:03 32.6 °F 31.3 °F 30.17 in Calm     95 % 0.00 in
03:05 32.5 °F 30.9 °F 30.17 in Calm     94 % 0.00 in
03:06 32.5 °F 30.9 °F 30.17 in Calm     94 % 0.00 in
03:10 32.3 °F 30.7 °F 30.17 in Calm     94 % 0.00 in
03:13 32.2 °F 30.6 °F 30.17 in Calm     94 % 0.00 in
03:14 32.1 °F 30.5 °F 30.17 in Calm     94 % 0.00 in
03:15 32.1 °F 30.5 °F 30.17 in Calm     94 % 0.00 in
03:17 32.1 °F 30.5 °F 30.17 in Calm     94 % 0.00 in
03:19 32.0 °F 30.7 °F 30.17 in Calm     95 % 0.00 in
03:20 32.0 °F 30.7 °F 30.17 in Calm     95 % 0.00 in
03:23 31.9 °F 30.6 °F 30.17 in Calm     95 % 0.00 in
03:24 31.9 °F 30.6 °F 30.17 in Calm     95 % 0.00 in
03:25 31.8 °F 30.5 °F 30.17 in Calm     95 % 0.00 in
03:27 31.7 °F 30.4 °F 30.17 in Calm     95 % 0.00 in
03:28 31.7 °F 30.1 °F 30.17 in Calm     94 % 0.00 in
03:30 31.6 °F 30.0 °F 30.17 in Calm     94 % 0.00 in
03:34 31.4 °F 29.8 °F 30.18 in Calm     94 % 0.00 in
03:35 31.4 °F 29.8 °F 30.18 in Calm     94 % 0.00 in
03:36 31.4 °F 29.8 °F 30.18 in Calm     94 % 0.00 in
03:37 31.4 °F 29.8 °F 30.18 in Calm     94 % 0.00 in
03:38 31.3 °F 29.7 °F 30.18 in Calm     94 % 0.00 in
03:39 31.3 °F 29.7 °F 30.18 in Calm     94 % 0.00 in
03:40 31.2 °F 29.6 °F 30.18 in Calm     94 % 0.00 in
03:43 31.1 °F 29.5 °F 30.18 in Calm     94 % 0.00 in
03:44 31.1 °F 29.5 °F 30.18 in Calm     94 % 0.00 in
03:46 31.1 °F 29.5 °F 30.18 in Calm     94 % 0.00 in
03:48 31.1 °F 29.5 °F 30.18 in Calm     94 % 0.00 in
03:50 31.1 °F 29.5 °F 30.18 in Calm     94 % 0.00 in
03:51 31.1 °F 29.5 °F 30.18 in Calm     94 % 0.00 in
03:52 31.1 °F 29.5 °F 30.18 in Calm     94 % 0.00 in
03:53 31.0 °F 29.4 °F 30.18 in Calm     94 % 0.00 in
03:55 31.0 °F 29.4 °F 30.18 in Calm     94 % 0.00 in
03:56 31.0 °F 29.7 °F 30.18 in Calm     95 % 0.00 in
03:57 31.0 °F 29.7 °F 30.18 in Calm     95 % 0.00 in
04:00 31.0 °F 29.7 °F 30.19 in Calm     95 % 0.00 in
04:01 31.0 °F 29.7 °F 30.19 in Calm     95 % 0.00 in
04:02 30.9 °F 29.6 °F 30.19 in Calm     95 % 0.00 in
04:07 30.8 °F 29.2 °F 30.19 in Calm     94 % 0.00 in
04:08 30.7 °F 29.1 °F 30.19 in Calm     94 % 0.00 in
04:10 30.7 °F 29.1 °F 30.19 in Calm     94 % 0.00 in
04:12 30.6 °F 29.0 °F 30.19 in Calm     94 % 0.00 in
04:14 30.5 °F 28.9 °F 30.19 in Calm     94 % 0.00 in
04:15 30.5 °F 28.9 °F 30.19 in Calm     94 % 0.00 in
04:16 30.5 °F 28.9 °F 30.19 in Calm     94 % 0.00 in
04:17 30.5 °F 28.9 °F 30.19 in Calm     94 % 0.00 in
04:18 30.4 °F 28.8 °F 30.19 in Calm     94 % 0.00 in
04:19 30.4 °F 28.8 °F 30.19 in Calm     94 % 0.00 in
04:20 30.4 °F 28.8 °F 30.19 in Calm     94 % 0.00 in
04:21 30.4 °F 29.1 °F 30.19 in Calm     95 % 0.00 in
04:22 30.3 °F 29.0 °F 30.19 in Calm     95 % 0.00 in
04:23 30.3 °F 29.0 °F 30.19 in Calm     95 % 0.00 in
04:25 30.3 °F 29.0 °F 30.19 in Calm     95 % 0.00 in
04:26 30.2 °F 28.9 °F 30.19 in Calm     95 % 0.00 in
04:27 30.2 °F 28.9 °F 30.19 in Calm     95 % 0.00 in
04:28 30.2 °F 28.9 °F 30.19 in Calm     95 % 0.00 in
04:30 30.1 °F 28.8 °F 30.19 in Calm     95 % 0.00 in
04:32 30.1 °F 28.5 °F 30.19 in Calm     94 % 0.00 in
04:33 30.1 °F 28.5 °F 30.19 in Calm     94 % 0.00 in
04:34 30.1 °F 28.5 °F 30.19 in Calm     94 % 0.00 in
04:35 30.0 °F 28.4 °F 30.19 in Calm     94 % 0.00 in
04:36 30.0 °F 28.4 °F 30.19 in Calm     94 % 0.00 in
04:37 30.0 °F 28.4 °F 30.19 in Calm     94 % 0.00 in
04:39 29.9 °F 28.3 °F 30.19 in Calm     94 % 0.00 in
04:40 29.9 °F 28.3 °F 30.19 in Calm     94 % 0.00 in
04:43 29.8 °F 28.2 °F 30.19 in Calm     94 % 0.00 in
04:44 29.8 °F 28.5 °F 30.19 in Calm     95 % 0.00 in
04:45 29.8 °F 28.5 °F 30.19 in Calm     95 % 0.00 in
04:47 29.8 °F 28.5 °F 30.19 in Calm     95 % 0.00 in
04:48 29.7 °F 28.4 °F 30.19 in Calm     95 % 0.00 in
04:53 29.6 °F 28.3 °F 30.19 in Calm     95 % 0.00 in
04:55 29.6 °F 28.3 °F 30.19 in Calm     95 % 0.00 in
04:56 29.6 °F 28.3 °F 30.19 in Calm     95 % 0.00 in
04:57 29.5 °F 28.2 °F 30.19 in Calm     95 % 0.00 in
04:58 29.4 °F 27.8 °F 30.19 in Calm     94 % 0.00 in
05:00 29.4 °F 27.8 °F 30.19 in Calm     94 % 0.00 in
05:01 29.3 °F 27.7 °F 30.19 in Calm     94 % 0.00 in
05:02 29.3 °F 28.0 °F 30.19 in Calm     95 % 0.00 in
05:03 29.2 °F 27.9 °F 30.19 in Calm     95 % 0.00 in
05:04 29.2 °F 27.9 °F 30.19 in Calm     95 % 0.00 in
05:05 29.2 °F 27.9 °F 30.19 in Calm     95 % 0.00 in
05:09 29.0 °F 27.7 °F 30.19 in Calm     95 % 0.00 in
05:10 29.0 °F 27.7 °F 30.19 in Calm     95 % 0.00 in
05:11 29.0 °F 27.4 °F 30.19 in Calm     94 % 0.00 in
05:12 28.9 °F 27.3 °F 30.19 in Calm     94 % 0.00 in
05:13 28.9 °F 27.3 °F 30.19 in Calm     94 % 0.00 in
05:14 28.9 °F 27.3 °F 30.19 in Calm     94 % 0.00 in
05:15 28.9 °F 27.3 °F 30.19 in Calm     94 % 0.00 in
05:19 28.8 °F 27.5 °F 30.19 in Calm     95 % 0.00 in
05:21 28.9 °F 27.6 °F 30.19 in Calm     95 % 0.00 in
05:24 28.9 °F 27.6 °F 30.19 in Calm     95 % 0.00 in
05:25 28.9 °F 27.6 °F 30.19 in Calm     95 % 0.00 in
05:27 28.9 °F 27.6 °F 30.19 in Calm     95 % 0.00 in
05:28 28.9 °F 27.6 °F 30.19 in Calm     95 % 0.00 in
05:29 28.9 °F 27.6 °F 30.19 in Calm     95 % 0.00 in
05:30 28.9 °F 27.6 °F 30.19 in Calm     95 % 0.00 in
05:31 28.9 °F 27.6 °F 30.19 in Calm     95 % 0.00 in
05:33 28.9 °F 27.6 °F 30.20 in Calm     95 % 0.00 in
05:34 28.9 °F 27.6 °F 30.19 in Calm     95 % 0.00 in
05:36 29.0 °F 27.7 °F 30.19 in Calm     95 % 0.00 in
05:37 29.0 °F 27.7 °F 30.19 in Calm     95 % 0.00 in
05:38 28.9 °F 27.6 °F 30.19 in Calm     95 % 0.00 in
05:39 28.9 °F 27.6 °F 30.19 in Calm     95 % 0.00 in
05:40 28.9 °F 27.6 °F 30.20 in Calm     95 % 0.00 in
05:41 28.9 °F 27.6 °F 30.20 in Calm     95 % 0.00 in
05:42 28.9 °F 27.6 °F 30.20 in Calm     95 % 0.00 in
05:43 29.0 °F 27.7 °F 30.20 in Calm     95 % 0.00 in
05:44 29.0 °F 27.7 °F 30.20 in Calm     95 % 0.00 in
05:46 29.0 °F 27.7 °F 30.20 in Calm     95 % 0.00 in
05:47 29.0 °F 27.7 °F 30.20 in Calm     95 % 0.00 in
05:48 29.0 °F 27.7 °F 30.20 in Calm     95 % 0.00 in
05:49 28.9 °F 27.6 °F 30.20 in Calm     95 % 0.00 in
05:50 28.9 °F 27.6 °F 30.20 in Calm     95 % 0.00 in
05:52 28.9 °F 27.6 °F 30.20 in Calm     95 % 0.00 in
05:55 28.8 °F 27.5 °F 30.20 in Calm     95 % 0.00 in
05:57 28.7 °F 27.4 °F 30.20 in Calm     95 % 0.00 in
05:58 28.7 °F 27.4 °F 30.20 in Calm     95 % 0.00 in
05:59 28.7 °F 27.4 °F 30.20 in Calm     95 % 0.00 in
06:00 28.7 °F 27.4 °F 30.20 in Calm     95 % 0.00 in
06:03 28.6 °F 27.3 °F 30.21 in Calm     95 % 0.00 in
06:05 28.6 °F 27.3 °F 30.21 in Calm     95 % 0.00 in
06:07 28.6 °F 27.3 °F 30.21 in Calm     95 % 0.00 in
06:09 28.7 °F 27.4 °F 30.21 in Calm   1.0 mph 95 % 0.00 in
06:10 28.7 °F 27.4 °F 30.21 in Calm   1.0 mph 95 % 0.00 in
06:11 28.7 °F 27.4 °F 30.21 in Calm   1.0 mph 95 % 0.00 in
06:12 28.7 °F 27.4 °F 30.21 in Calm   1.0 mph 95 % 0.00 in
06:13 28.7 °F 27.4 °F 30.22 in Calm   1.0 mph 95 % 0.00 in
06:15 28.7 °F 27.4 °F 30.22 in Calm   1.0 mph 95 % 0.00 in
06:16 28.7 °F 27.4 °F 30.22 in Calm   1.0 mph 95 % 0.00 in
06:17 28.7 °F 27.4 °F 30.22 in Calm   1.0 mph 95 % 0.00 in
06:18 28.7 °F 27.4 °F 30.22 in Calm   1.0 mph 95 % 0.00 in
06:19 28.6 °F 27.3 °F 30.22 in Calm   1.0 mph 95 % 0.00 in
06:20 28.6 °F 27.3 °F 30.22 in Calm   1.0 mph 95 % 0.00 in
06:21 28.6 °F 27.3 °F 30.22 in Calm   1.0 mph 95 % 0.00 in
06:22 28.7 °F 27.4 °F 30.22 in Calm   1.0 mph 95 % 0.00 in
06:23 28.7 °F 27.4 °F 30.22 in Calm   1.0 mph 95 % 0.00 in
06:24 28.7 °F 27.4 °F 30.22 in Calm   1.0 mph 95 % 0.00 in
06:27 28.9 °F 27.6 °F 30.22 in Calm   1.0 mph 95 % 0.00 in
06:28 29.0 °F 27.7 °F 30.22 in Calm   1.0 mph 95 % 0.00 in
06:30 29.1 °F 28.1 °F 30.22 in Calm   1.0 mph 96 % 0.00 in
06:32 29.2 °F 28.2 °F 30.22 in Calm   1.0 mph 96 % 0.00 in
06:33 29.3 °F 28.3 °F 30.22 in Calm   1.0 mph 96 % 0.00 in
06:34 29.3 °F 28.3 °F 30.23 in Calm   1.0 mph 96 % 0.00 in
06:35 29.3 °F 28.3 °F 30.23 in Calm   1.0 mph 96 % 0.00 in
06:36 29.4 °F 28.4 °F 30.23 in Calm   1.0 mph 96 % 0.00 in
06:38 29.4 °F 28.4 °F 30.23 in Calm   1.0 mph 96 % 0.00 in
06:40 29.5 °F 28.5 °F 30.23 in Calm   1.0 mph 96 % 0.00 in
06:43 29.6 °F 28.6 °F 30.23 in Calm   1.0 mph 96 % 0.00 in
06:45 29.6 °F 28.6 °F 30.23 in Calm   1.0 mph 96 % 0.00 in
06:46 29.7 °F 28.7 °F 30.23 in Calm   1.0 mph 96 % 0.00 in
06:50 29.7 °F 28.7 °F 30.23 in Calm   1.0 mph 96 % 0.00 in
06:51 29.7 °F 28.7 °F 30.23 in Calm   1.0 mph 96 % 0.00 in
06:54 29.6 °F 28.6 °F 30.23 in Calm   1.0 mph 96 % 0.00 in
06:57 29.6 °F 28.6 °F 30.23 in Calm   1.0 mph 96 % 0.00 in
06:58 29.6 °F 28.3 °F 30.23 in Calm   1.0 mph 95 % 0.00 in
06:59 29.6 °F 28.3 °F 30.23 in Calm   1.0 mph 95 % 0.00 in
07:00 29.5 °F 28.2 °F 30.24 in Calm   1.0 mph 95 % 0.00 in
07:01 29.5 °F 28.2 °F 30.24 in Calm   1.0 mph 95 % 0.00 in
07:02 29.4 °F 28.1 °F 30.24 in Calm   1.0 mph 95 % 0.00 in
07:03 29.4 °F 28.1 °F 30.24 in Calm   1.0 mph 95 % 0.00 in
07:04 29.4 °F 28.1 °F 30.24 in Calm   1.0 mph 95 % 0.00 in
07:05 29.4 °F 28.1 °F 30.24 in Calm   1.0 mph 95 % 0.00 in
07:06 29.3 °F 28.0 °F 30.24 in Calm   1.0 mph 95 % 0.00 in
07:08 29.3 °F 28.0 °F 30.24 in Calm   1.0 mph 95 % 0.00 in
07:09 29.3 °F 28.0 °F 30.24 in Calm   1.0 mph 95 % 0.00 in
07:10 29.3 °F 28.0 °F 30.24 in Calm   1.0 mph 95 % 0.00 in
07:12 29.3 °F 28.0 °F 30.24 in Calm   1.0 mph 95 % 0.00 in
07:13 29.3 °F 28.0 °F 30.24 in Calm   1.0 mph 95 % 0.00 in
07:14 29.2 °F 27.9 °F 30.24 in Calm   1.0 mph 95 % 0.00 in
07:15 29.2 °F 27.9 °F 30.24 in Calm   1.0 mph 95 % 0.00 in
07:17 29.2 °F 28.2 °F 30.24 in Calm   1.0 mph 96 % 0.00 in
07:18 29.2 °F 28.2 °F 30.24 in Calm   1.0 mph 96 % 0.00 in
07:19 29.2 °F 28.2 °F 30.24 in SW 2.0 mph 2.0 mph 96 % 0.00 in
07:20 29.3 °F 28.3 °F 30.24 in SW 1.0 mph 2.0 mph 96 % 0.00 in
07:21 29.3 °F 28.3 °F 30.24 in Calm   2.0 mph 96 % 0.00 in
07:22 29.3 °F 28.3 °F 30.24 in Calm   2.0 mph 96 % 0.00 in
07:25 29.2 °F 28.2 °F 30.24 in Calm   2.0 mph 96 % 0.00 in
07:26 29.3 °F 28.3 °F 30.24 in Calm   2.0 mph 96 % 0.00 in
07:30 29.2 °F 28.2 °F 30.24 in Calm   2.0 mph 96 % 0.00 in
07:31 29.2 °F 28.2 °F 30.24 in Calm   2.0 mph 96 % 0.00 in
07:32 29.2 °F 28.2 °F 30.24 in Calm   2.0 mph 96 % 0.00 in
07:34 29.2 °F 28.2 °F 30.24 in Calm   2.0 mph 96 % 0.00 in
07:35 29.1 °F 28.1 °F 30.24 in Calm   2.0 mph 96 % 0.00 in
07:37 29.1 °F 28.1 °F 30.24 in Calm   2.0 mph 96 % 0.00 in
07:38 29.1 °F 28.1 °F 30.24 in Calm   2.0 mph 96 % 0.00 in
07:39 29.1 °F 28.1 °F 30.24 in Calm   1.0 mph 96 % 0.00 in
07:40 29.1 °F 28.1 °F 30.24 in Calm   1.0 mph 96 % 0.00 in
07:43 29.0 °F 28.0 °F 30.24 in Calm   1.0 mph 96 % 0.00 in
07:45 29.0 °F 28.0 °F 30.24 in Calm     96 % 0.00 in
07:48 28.9 °F 27.6 °F 30.24 in Calm     95 % 0.00 in
07:49 28.8 °F 27.5 °F 30.23 in Calm     95 % 0.00 in
07:51 28.8 °F 27.5 °F 30.23 in Calm   1.0 mph 95 % 0.00 in
07:52 28.8 °F 27.5 °F 30.23 in Calm   1.0 mph 95 % 0.00 in
07:53 28.8 °F 27.5 °F 30.24 in Calm   1.0 mph 95 % 0.00 in
07:54 28.7 °F 27.4 °F 30.24 in Calm   2.0 mph 95 % 0.00 in
07:55 28.7 °F 27.4 °F 30.23 in SW 3.0 mph 3.0 mph 95 % 0.00 in
07:57 28.8 °F 27.5 °F 30.23 in SW 1.0 mph 4.0 mph 95 % 0.00 in
07:58 28.8 °F 27.5 °F 30.24 in SW 1.0 mph 4.0 mph 95 % 0.00 in
08:00 28.9 °F 27.9 °F 30.23 in Calm   4.0 mph 96 % 0.00 in
08:02 29.0 °F 28.0 °F 30.24 in Calm   4.0 mph 96 % 0.00 in
08:05 29.0 °F 28.0 °F 30.24 in Calm   4.0 mph 96 % 0.00 in
08:06 29.1 °F 28.1 °F 30.24 in Calm   4.0 mph 96 % 0.00 in
08:07 29.1 °F 28.1 °F 30.24 in Calm   4.0 mph 96 % 0.00 in
08:08 29.1 °F 28.1 °F 30.24 in Calm   4.0 mph 96 % 0.00 in
08:09 29.1 °F 28.1 °F 30.24 in Calm   4.0 mph 96 % 0.00 in
08:10 29.2 °F 28.2 °F 30.24 in Calm   4.0 mph 96 % 0.00 in
08:11 29.2 °F 28.2 °F 30.24 in Calm   4.0 mph 96 % 0.00 in
08:12 29.2 °F 28.2 °F 30.24 in Calm   4.0 mph 96 % 0.00 in
08:13 29.2 °F 28.2 °F 30.24 in Calm   4.0 mph 96 % 0.00 in
08:14 29.2 °F 28.2 °F 30.24 in SW 2.0 mph 4.0 mph 96 % 0.00 in
08:15 29.2 °F 28.2 °F 30.24 in SW 1.0 mph 3.0 mph 96 % 0.00 in
08:16 29.3 °F 28.3 °F 30.24 in SW 1.0 mph 3.0 mph 96 % 0.00 in
08:18 29.3 °F 28.3 °F 30.25 in SW 1.0 mph 3.0 mph 96 % 0.00 in
08:19 29.4 °F 28.4 °F 30.25 in Calm   3.0 mph 96 % 0.00 in
08:20 29.4 °F 28.4 °F 30.25 in Calm   3.0 mph 96 % 0.00 in
08:21 29.4 °F 28.4 °F 30.25 in Calm   3.0 mph 96 % 0.00 in
08:22 29.5 °F 28.5 °F 30.25 in Calm   3.0 mph 96 % 0.00 in
08:23 29.5 °F 28.5 °F 30.25 in Calm   3.0 mph 96 % 0.00 in
08:24 29.6 °F 28.6 °F 30.25 in Calm   3.0 mph 96 % 0.00 in
08:26 29.7 °F 28.7 °F 30.25 in Calm   3.0 mph 96 % 0.00 in
08:27 29.8 °F 28.8 °F 30.25 in Calm   3.0 mph 96 % 0.00 in
08:28 29.9 °F 28.9 °F 30.25 in Calm   3.0 mph 96 % 0.00 in
08:29 29.9 °F 28.9 °F 30.25 in Calm   3.0 mph 96 % 0.00 in
08:30 29.9 °F 28.9 °F 30.25 in Calm   3.0 mph 96 % 0.00 in
08:31 30.1 °F 29.1 °F 30.25 in Calm   3.0 mph 96 % 0.00 in
08:32 30.1 °F 29.1 °F 30.25 in Calm   3.0 mph 96 % 0.00 in
08:33 30.1 °F 29.1 °F 30.25 in Calm   3.0 mph 96 % 0.00 in
08:35 30.2 °F 29.2 °F 30.25 in Calm   3.0 mph 96 % 0.00 in
08:36 30.2 °F 29.2 °F 30.25 in Calm   3.0 mph 96 % 0.00 in
08:37 30.3 °F 29.3 °F 30.25 in Calm   3.0 mph 96 % 0.00 in
08:38 30.3 °F 29.3 °F 30.26 in Calm   1.0 mph 96 % 0.00 in
08:40 30.4 °F 29.4 °F 30.26 in Calm   2.0 mph 96 % 0.00 in
08:42 30.5 °F 29.5 °F 30.26 in Calm   2.0 mph 96 % 0.00 in
08:43 30.6 °F 29.6 °F 30.26 in Calm   2.0 mph 96 % 0.00 in
08:44 30.7 °F 29.7 °F 30.26 in Calm   2.0 mph 96 % 0.00 in
08:45 30.7 °F 29.9 °F 30.26 in Calm   2.0 mph 97 % 0.00 in
08:46 30.7 °F 29.9 °F 30.26 in Calm   2.0 mph 97 % 0.00 in
08:47 30.8 °F 29.8 °F 30.26 in Calm   2.0 mph 96 % 0.00 in
08:48 30.8 °F 29.8 °F 30.26 in Calm   2.0 mph 96 % 0.00 in
08:49 30.8 °F 30.0 °F 30.26 in Calm   2.0 mph 97 % 0.00 in
08:50 30.9 °F 29.9 °F 30.26 in Calm   2.0 mph 96 % 0.00 in
08:51 30.9 °F 29.9 °F 30.26 in Calm   2.0 mph 96 % 0.00 in
08:53 31.0 °F 30.0 °F 30.26 in Calm   2.0 mph 96 % 0.00 in
08:54 31.0 °F 30.0 °F 30.26 in Calm   2.0 mph 96 % 0.00 in
08:55 31.1 °F 30.1 °F 30.26 in Calm   2.0 mph 96 % 0.00 in
08:56 31.2 °F 30.2 °F 30.26 in Calm   2.0 mph 96 % 0.00 in
08:57 31.2 °F 30.2 °F 30.26 in Calm   2.0 mph 96 % 0.00 in
08:58 31.3 °F 30.3 °F 30.27 in Calm   2.0 mph 96 % 0.00 in
08:59 31.3 °F 30.5 °F 30.27 in Calm   4.0 mph 97 % 0.00 in
09:03 31.7 °F 30.9 °F 30.27 in Calm   4.0 mph 97 % 0.00 in
09:04 31.7 °F 30.9 °F 30.27 in SW 2.0 mph 4.0 mph 97 % 0.00 in
09:07 32.0 °F 31.2 °F 30.27 in Calm   4.0 mph 97 % 0.00 in
09:08 32.1 °F 31.3 °F 30.27 in Calm   4.0 mph 97 % 0.00 in
09:09 32.1 °F 31.3 °F 30.27 in Calm   4.0 mph 97 % 0.00 in
09:10 32.2 °F 31.4 °F 30.27 in Calm   4.0 mph 97 % 0.00 in
09:11 32.2 °F 31.4 °F 30.27 in Calm   4.0 mph 97 % 0.00 in
09:12 32.2 °F 31.4 °F 30.27 in Calm   4.0 mph 97 % 0.00 in
09:13 32.3 °F 31.5 °F 30.27 in Calm   4.0 mph 97 % 0.00 in
09:17 32.4 °F 31.6 °F 30.27 in Calm   4.0 mph 97 % 0.00 in
09:19 32.5 °F 31.7 °F 30.27 in Calm   2.0 mph 97 % 0.00 in
09:22 33.0 °F 32.2 °F 30.27 in Calm   1.0 mph 97 % 0.00 in
09:23 33.0 °F 32.2 °F 30.27 in Calm   1.0 mph 97 % 0.00 in
09:24 33.1 °F 32.3 °F 30.28 in Calm   1.0 mph 97 % 0.00 in
09:25 33.2 °F 32.4 °F 30.28 in Calm   1.0 mph 97 % 0.00 in
09:26 33.3 °F 32.5 °F 30.28 in Calm   1.0 mph 97 % 0.00 in
09:27 33.3 °F 32.5 °F 30.28 in Calm   1.0 mph 97 % 0.00 in
09:28 33.3 °F 32.5 °F 30.28 in Calm   1.0 mph 97 % 0.00 in
09:30 33.4 °F 32.6 °F 30.28 in Calm   1.0 mph 97 % 0.00 in
09:34 33.5 °F 32.7 °F 30.28 in Calm   1.0 mph 97 % 0.00 in
09:35 33.6 °F 32.8 °F 30.28 in Calm   1.0 mph 97 % 0.00 in
09:36 33.7 °F 32.9 °F 30.28 in Calm   1.0 mph 97 % 0.00 in
09:41 33.9 °F 33.1 °F 30.28 in Calm   1.0 mph 97 % 0.00 in
09:42 34.0 °F 33.2 °F 30.28 in Calm   1.0 mph 97 % 0.00 in
09:43 34.0 °F 33.2 °F 30.28 in Calm   1.0 mph 97 % 0.00 in
09:44 34.0 °F 33.2 °F 30.28 in Calm   1.0 mph 97 % 0.00 in
09:45 34.1 °F 33.3 °F 30.29 in Calm   1.0 mph 97 % 0.00 in
09:46 34.1 °F 33.3 °F 30.29 in Calm   1.0 mph 97 % 0.00 in
09:47 34.1 °F 33.3 °F 30.29 in Calm   1.0 mph 97 % 0.00 in
09:48 34.1 °F 33.3 °F 30.29 in Calm   1.0 mph 97 % 0.00 in
09:50 34.3 °F 33.5 °F 30.29 in Calm   1.0 mph 97 % 0.00 in
09:51 34.3 °F 33.5 °F 30.29 in Calm   1.0 mph 97 % 0.00 in
09:52 34.3 °F 33.5 °F 30.29 in Calm   1.0 mph 97 % 0.00 in
09:53 34.4 °F 33.6 °F 30.29 in Calm   1.0 mph 97 % 0.00 in
09:54 34.4 °F 33.6 °F 30.29 in Calm   1.0 mph 97 % 0.00 in
09:55 34.4 °F 33.6 °F 30.29 in Calm   1.0 mph 97 % 0.00 in
09:56 34.6 °F 33.8 °F 30.29 in Calm   1.0 mph 97 % 0.00 in
09:57 34.6 °F 33.8 °F 30.29 in Calm   1.0 mph 97 % 0.00 in
09:58 34.6 °F 33.8 °F 30.29 in Calm   1.0 mph 97 % 0.00 in
10:00 34.7 °F 33.9 °F 30.29 in Calm   1.0 mph 97 % 0.00 in
10:01 34.8 °F 34.0 °F 30.29 in Calm   1.0 mph 97 % 0.00 in
10:02 34.8 °F 34.0 °F 30.29 in Calm   1.0 mph 97 % 0.00 in
10:04 34.9 °F 34.1 °F 30.29 in Calm   1.0 mph 97 % 0.00 in
10:06 35.1 °F 34.3 °F 30.29 in Calm   1.0 mph 97 % 0.00 in
10:07 35.2 °F 34.4 °F 30.29 in Calm   1.0 mph 97 % 0.00 in
10:08 35.2 °F 34.4 °F 30.29 in Calm   1.0 mph 97 % 0.00 in
10:09 35.3 °F 34.5 °F 30.29 in Calm   1.0 mph 97 % 0.00 in
10:14 35.5 °F 34.7 °F 30.29 in Calm   1.0 mph 97 % 0.00 in
10:15 35.5 °F 34.7 °F 30.29 in Calm   1.0 mph 97 % 0.00 in
10:16 35.6 °F 34.8 °F 30.29 in Calm   1.0 mph 97 % 0.00 in
10:17 35.7 °F 34.9 °F 30.30 in Calm   1.0 mph 97 % 0.00 in
10:18 35.8 °F 35.0 °F 30.30 in Calm   3.0 mph 97 % 0.00 in
10:19 35.8 °F 35.0 °F 30.30 in SW 1.0 mph 3.0 mph 97 % 0.00 in
10:20 36.0 °F 35.2 °F 30.30 in Calm   3.0 mph 97 % 0.01 in
10:21 36.1 °F 35.3 °F 30.30 in Calm   3.0 mph 97 % 0.01 in
10:22 36.2 °F 35.4 °F 30.30 in Calm   3.0 mph 97 % 0.01 in
10:24 36.3 °F 35.5 °F 30.29 in Calm   3.0 mph 97 % 0.01 in
10:25 36.3 °F 35.5 °F 30.29 in Calm   3.0 mph 97 % 0.01 in
10:26 36.3 °F 35.5 °F 30.29 in Calm   3.0 mph 97 % 0.01 in
10:27 36.4 °F 35.6 °F 30.29 in Calm   3.0 mph 97 % 0.01 in
10:28 36.5 °F 35.7 °F 30.29 in Calm   3.0 mph 97 % 0.01 in
10:29 36.5 °F 35.7 °F 30.29 in Calm   3.0 mph 97 % 0.01 in
10:30 36.5 °F 35.7 °F 30.29 in Calm   3.0 mph 97 % 0.01 in
10:31 36.6 °F 35.8 °F 30.29 in SW 1.0 mph 3.0 mph 97 % 0.01 in
10:32 36.6 °F 35.8 °F 30.29 in Calm   4.0 mph 97 % 0.01 in
10:33 36.6 °F 35.8 °F 30.29 in Calm   4.0 mph 97 % 0.01 in
10:34 36.7 °F 35.9 °F 30.29 in SW 2.0 mph 4.0 mph 97 % 0.01 in
10:37 36.8 °F 36.0 °F 30.29 in WSW 3.0 mph 4.0 mph 97 % 0.01 in
10:38 36.8 °F 36.0 °F 30.29 in Calm   4.0 mph 97 % 0.01 in
10:39 36.8 °F 36.0 °F 30.29 in WSW 1.0 mph 4.0 mph 97 % 0.01 in
10:40 36.8 °F 36.0 °F 30.29 in Calm   4.0 mph 97 % 0.01 in
10:41 36.9 °F 36.1 °F 30.29 in Calm   4.0 mph 97 % 0.01 in
10:43 36.9 °F 36.1 °F 30.29 in Calm   4.0 mph 97 % 0.01 in
10:44 37.0 °F 36.2 °F 30.29 in Calm   4.0 mph 97 % 0.01 in
10:45 37.0 °F 36.2 °F 30.29 in Calm   4.0 mph 97 % 0.01 in
10:46 37.0 °F 36.2 °F 30.29 in Calm   4.0 mph 97 % 0.01 in
10:47 37.0 °F 36.2 °F 30.29 in Calm   4.0 mph 97 % 0.01 in
10:48 37.1 °F 36.3 °F 30.29 in Calm   4.0 mph 97 % 0.01 in
10:49 37.1 °F 36.3 °F 30.29 in Calm   4.0 mph 97 % 0.01 in
10:50 37.2 °F 36.4 °F 30.29 in Calm   4.0 mph 97 % 0.01 in
10:51 37.3 °F 36.5 °F 30.29 in Calm   4.0 mph 97 % 0.01 in
10:52 37.3 °F 36.5 °F 30.29 in Calm   4.0 mph 97 % 0.01 in
10:53 37.3 °F 36.5 °F 30.29 in Calm   4.0 mph 97 % 0.01 in
10:54 37.4 °F 36.6 °F 30.29 in Calm   4.0 mph 97 % 0.01 in
10:55 37.4 °F 36.6 °F 30.29 in Calm   4.0 mph 97 % 0.01 in
10:57 37.5 °F 36.7 °F 30.29 in Calm   3.0 mph 97 % 0.01 in
10:58 37.6 °F 36.5 °F 30.29 in WSW 2.0 mph 2.0 mph 96 % 0.01 in
10:59 37.6 °F 36.8 °F 30.29 in WSW 1.0 mph 3.0 mph 97 % 0.01 in
11:00 37.6 °F 36.8 °F 30.29 in WSW 1.0 mph 3.0 mph 97 % 0.01 in
11:03 37.7 °F 36.6 °F 30.29 in WSW 2.0 mph 5.0 mph 96 % 0.01 in
11:04 37.8 °F 36.7 °F 30.29 in Calm   5.0 mph 96 % 0.01 in
11:05 37.8 °F 36.7 °F 30.29 in WSW 1.0 mph 5.0 mph 96 % 0.01 in
11:06 37.8 °F 36.7 °F 30.30 in WSW 1.0 mph 5.0 mph 96 % 0.01 in
11:07 37.9 °F 36.8 °F 30.30 in Calm   5.0 mph 96 % 0.01 in
11:08 37.9 °F 36.8 °F 30.29 in Calm   5.0 mph 96 % 0.01 in
11:09 38.0 °F 36.9 °F 30.29 in Calm   5.0 mph 96 % 0.01 in
11:10 38.0 °F 36.9 °F 30.29 in Calm   5.0 mph 96 % 0.01 in
11:11 38.1 °F 37.0 °F 30.29 in Calm   5.0 mph 96 % 0.01 in
11:15 38.4 °F 37.3 °F 30.29 in Calm   5.0 mph 96 % 0.01 in
11:16 38.5 °F 37.4 °F 30.29 in Calm   5.0 mph 96 % 0.01 in
11:17 38.5 °F 37.1 °F 30.29 in WSW 2.0 mph 5.0 mph 95 % 0.01 in
11:18 38.6 °F 37.2 °F 30.29 in Calm   5.0 mph 95 % 0.01 in
11:19 38.6 °F 37.2 °F 30.29 in Calm   5.0 mph 95 % 0.01 in
11:20 38.6 °F 37.2 °F 30.29 in Calm   5.0 mph 95 % 0.00 in
11:21 38.6 °F 37.2 °F 30.29 in Calm   3.0 mph 95 % 0.00 in
11:22 38.7 °F 37.3 °F 30.29 in Calm   3.0 mph 95 % 0.00 in
11:24 38.8 °F 37.4 °F 30.29 in Calm   2.0 mph 95 % 0.00 in
11:25 38.8 °F 37.4 °F 30.29 in Calm   2.0 mph 95 % 0.00 in
11:27 38.9 °F 37.3 °F 30.29 in WSW 3.0 mph 4.0 mph 94 % 0.00 in
11:28 39.1 °F 37.5 °F 30.29 in WSW 1.0 mph 4.0 mph 94 % 0.00 in
11:29 39.1 °F 37.5 °F 30.29 in WSW 2.0 mph 4.0 mph 94 % 0.00 in
11:30 39.2 °F 37.6 °F 30.29 in WSW 2.0 mph 4.0 mph 94 % 0.00 in
11:31 39.3 °F 37.7 °F 30.28 in WSW 2.0 mph 4.0 mph 94 % 0.00 in
11:33 39.4 °F 37.5 °F 30.29 in Calm   8.0 mph 93 % 0.00 in
11:35 39.5 °F 37.3 °F 30.28 in SW 4.0 mph 8.0 mph 92 % 0.00 in
11:36 39.7 °F 37.5 °F 30.28 in West 2.0 mph 8.0 mph 92 % 0.00 in
11:37 39.7 °F 37.5 °F 30.28 in WSW 5.0 mph 8.0 mph 92 % 0.00 in
11:38 39.7 °F 37.5 °F 30.28 in WSW 1.0 mph 8.0 mph 92 % 0.00 in
11:40 39.9 °F 37.4 °F 30.28 in Calm   8.0 mph 91 % 0.00 in
11:41 40.0 °F 37.5 °F 30.28 in SW 1.0 mph 8.0 mph 91 % 0.00 in
11:42 40.0 °F 37.5 °F 30.28 in Calm   8.0 mph 91 % 0.00 in
11:43 40.1 °F 37.4 °F 30.28 in Calm   8.0 mph 90 % 0.00 in
11:44 40.1 °F 37.4 °F 30.28 in Calm   8.0 mph 90 % 0.00 in
11:46 40.2 °F 37.5 °F 30.28 in Calm   8.0 mph 90 % 0.00 in
11:48 40.3 °F 37.3 °F 30.28 in West 3.0 mph 9.0 mph 89 % 0.00 in
11:49 40.4 °F 37.4 °F 30.28 in Calm   9.0 mph 89 % 0.00 in
11:50 40.5 °F 37.5 °F 30.28 in West 1.0 mph 9.0 mph 89 % 0.00 in
11:52 40.6 °F 37.3 °F 30.27 in West 3.0 mph 9.0 mph 88 % 0.00 in
11:53 40.7 °F 37.1 °F 30.28 in SW 4.0 mph 9.0 mph 87 % 0.00 in
11:54 40.7 °F 36.8 °F 30.28 in SW 2.0 mph 9.0 mph 86 % 0.00 in
11:55 40.8 °F 36.9 °F 30.27 in Calm   9.0 mph 86 % 0.00 in
11:57 40.9 °F 36.7 °F 30.27 in SW 4.0 mph 9.0 mph 85 % 0.00 in
11:58 41.0 °F 36.5 °F 30.27 in SW 5.0 mph 9.0 mph 84 % 0.00 in
11:59 41.0 °F 36.5 °F 30.27 in WSW 2.0 mph 9.0 mph 84 % 0.00 in
12:00 41.1 °F 36.3 °F 30.27 in SW 2.0 mph 9.0 mph 83 % 0.00 in
12:01 41.2 °F 36.1 °F 30.27 in SW 5.0 mph 9.0 mph 82 % 0.00 in
12:02 41.3 °F 36.2 °F 30.27 in Calm   9.0 mph 82 % 0.00 in
12:03 41.4 °F 36.0 °F 30.27 in Calm   9.0 mph 81 % 0.00 in
12:04 41.4 °F 36.0 °F 30.27 in Calm   9.0 mph 81 % 0.00 in
12:05 41.4 °F 36.0 °F 30.27 in Calm   9.0 mph 81 % 0.00 in
12:06 41.5 °F 36.1 °F 30.27 in SW 1.0 mph 9.0 mph 81 % 0.00 in
12:07 41.5 °F 36.1 °F 30.27 in SW 1.0 mph 9.0 mph 81 % 0.00 in
12:08 41.6 °F 36.2 °F 30.27 in WSW 3.0 mph 9.0 mph 81 % 0.00 in
12:12 41.9 °F 36.2 °F 30.27 in Calm   7.0 mph 80 % 0.00 in
12:13 42.0 °F 36.0 °F 30.27 in West 1.0 mph 7.0 mph 79 % 0.00 in
12:14 42.1 °F 36.1 °F 30.27 in West 1.0 mph 7.0 mph 79 % 0.00 in
12:15 42.1 °F 36.1 °F 30.27 in NNE 5.0 mph 8.0 mph 79 % 0.00 in
12:16 42.2 °F 35.9 °F 30.27 in WSW 3.0 mph 8.0 mph 78 % 0.00 in
12:17 42.3 °F 36.0 °F 30.27 in WSW 4.0 mph 9.0 mph 78 % 0.00 in
12:19 42.4 °F 35.7 °F 30.27 in WSW 1.0 mph 9.0 mph 77 % 0.00 in
12:21 42.5 °F 35.8 °F 30.27 in WSW 5.0 mph 9.0 mph 77 % 0.00 in
12:24 42.6 °F 35.6 °F 30.27 in Calm   9.0 mph 76 % 0.00 in
12:25 42.6 °F 35.3 °F 30.27 in Calm   9.0 mph 75 % 0.00 in
12:28 42.8 °F 35.5 °F 30.27 in WNW 1.0 mph 9.0 mph 75 % 0.00 in
12:29 42.8 °F 35.5 °F 30.27 in West 2.0 mph 9.0 mph 75 % 0.00 in
12:46 42.8 °F 34.8 °F 30.27 in SW 7.0 mph 9.0 mph 73 % 0.00 in
12:49 42.9 °F 34.6 °F 30.27 in SW 4.0 mph 10.0 mph 72 % 0.00 in
12:52 43.1 °F 34.4 °F 30.26 in WSW 6.0 mph 10.0 mph 71 % 0.00 in
12:53 43.1 °F 34.4 °F 30.26 in WSW 1.0 mph 10.0 mph 71 % 0.00 in
12:57 43.2 °F 34.5 °F 30.26 in WSW 4.0 mph 10.0 mph 71 % 0.00 in
13:00 43.2 °F 34.2 °F 30.27 in Calm   10.0 mph 70 % 0.00 in
13:05 43.4 °F 34.4 °F 30.26 in West 8.0 mph 12.0 mph 70 % 0.00 in
13:06 43.4 °F 34.0 °F 30.26 in WSW 6.0 mph 12.0 mph 69 % 0.00 in
13:09 43.5 °F 34.1 °F 30.26 in WSW 1.0 mph 12.0 mph 69 % 0.00 in
13:10 43.5 °F 34.1 °F 30.26 in WSW 2.0 mph 12.0 mph 69 % 0.00 in
13:16 43.6 °F 34.2 °F 30.26 in West 2.0 mph 12.0 mph 69 % 0.00 in
13:22 43.7 °F 33.9 °F 30.26 in WSW 7.0 mph 12.0 mph 68 % 0.00 in
13:23 43.7 °F 33.9 °F 30.26 in WSW 2.0 mph 10.0 mph 68 % 0.00 in
13:25 43.7 °F 33.9 °F 30.26 in WNW 4.0 mph 10.0 mph 68 % 0.00 in
13:26 43.8 °F 34.0 °F 30.26 in WSW 5.0 mph 10.0 mph 68 % 0.00 in
13:29 43.8 °F 34.0 °F 30.27 in WSW 9.0 mph 10.0 mph 68 % 0.00 in
13:31 43.9 °F 34.1 °F 30.27 in WSW 3.0 mph 10.0 mph 68 % 0.00 in
13:32 43.9 °F 34.1 °F 30.27 in WSW 3.0 mph 10.0 mph 68 % 0.00 in
13:33 44.0 °F 34.2 °F 30.27 in Calm   10.0 mph 68 % 0.00 in
13:36 44.1 °F 34.3 °F 30.27 in WSW 5.0 mph 10.0 mph 68 % 0.00 in
13:37 44.2 °F 34.4 °F 30.27 in WSW 3.0 mph 9.0 mph 68 % 0.00 in
13:42 44.4 °F 34.2 °F 30.26 in WSW 3.0 mph 9.0 mph 67 % 0.00 in
13:43 44.5 °F 33.9 °F 30.27 in SW 8.0 mph 10.0 mph 66 % 0.00 in
13:46 44.7 °F 34.1 °F 30.27 in WSW 3.0 mph 10.0 mph 66 % 0.00 in
13:47 44.8 °F 33.8 °F 30.27 in WSW 6.0 mph 10.0 mph 65 % 0.00 in
13:52 44.8 °F 33.8 °F 30.27 in WSW 7.0 mph 11.0 mph 65 % 0.00 in
13:55 44.9 °F 33.9 °F 30.27 in West 2.0 mph 11.0 mph 65 % 0.00 in
14:00 45.0 °F 34.0 °F 30.26 in WSW 4.0 mph 11.0 mph 65 % 0.00 in
14:05 45.1 °F 33.7 °F 30.27 in SW 4.0 mph 11.0 mph 64 % 0.00 in
14:16 45.3 °F 33.9 °F 30.27 in WSW 3.0 mph 9.0 mph 64 % 0.00 in
14:21 45.5 °F 33.7 °F 30.27 in WSW 3.0 mph 14.0 mph 63 % 0.00 in
MarylandWx.com
Compliments of Weather Underground - 8 mb